Time;durP1;ratioP1;P1;durP2;ratioP2;P2;SDS_P1;SDS_P2;PMS_P1;PMS_P2;Temp;Humidity;BMP_temperature;BMP_pressure;BME280_temperature;BME280_humidity;BME280_pressure;Samples;Min_cycle;Max_cycle;Signal;HPM_P1;HPM_P2
2023/06/11 00:01:18;;;;;;;14.40;13.40;;;;;;;-145.94;46.91;75874.66;5096836;28;20182;-72
2023/06/11 00:03:52;;;;;;;13.57;12.67;;;;;;;-145.94;47.17;75870.59;5096778;28;20236;-72
2023/06/11 00:06:20;;;;;;;14.67;13.57;;;;;;;-145.94;47.04;75874.66;5096968;28;20547;-72
2023/06/11 00:08:47;;;;;;;13.43;12.80;;;;;;;-145.94;46.98;75874.66;5097044;28;20212;-72
2023/06/11 00:11:15;;;;;;;14.00;12.77;;;;;;;-145.94;47.01;75882.81;5096944;28;20624;-72
2023/06/11 00:13:42;;;;;;;12.77;12.00;;;;;;;-145.94;47.26;75884.84;5096535;28;20186;-72
2023/06/11 00:16:11;;;;;;;12.47;11.93;;;;;;;-145.94;47.26;75890.97;5096708;28;20235;-72
2023/06/11 00:18:40;;;;;;;14.30;13.10;;;;;;;-145.94;47.60;75903.22;5096618;28;20634;-72
2023/06/11 00:21:12;;;;;;;16.70;13.37;;;;;;;-145.94;47.62;75917.47;5096746;28;20182;-72
2023/06/11 00:23:39;;;;;;;14.13;13.23;;;;;;;-145.94;47.66;75921.56;5096382;28;20193;-72
2023/06/11 00:26:07;;;;;;;15.60;14.40;;;;;;;-145.94;47.75;75921.56;5096363;28;20606;-72
2023/06/11 00:28:34;;;;;;;14.30;13.10;;;;;;;-145.94;47.99;75927.66;5096243;28;20233;-72
2023/06/11 00:31:03;;;;;;;14.23;12.93;;;;;;;-145.94;47.90;75931.75;5096506;28;20192;-72
2023/06/11 00:33:30;;;;;;;14.60;13.33;;;;;;;-145.94;47.99;75941.94;5096476;28;20182;-72
2023/06/11 00:35:56;;;;;;;13.70;12.57;;;;;;;-145.94;47.97;75939.91;5077984;28;20221;-72
2023/06/11 00:38:23;;;;;;;13.97;12.77;;;;;;;-145.94;47.99;75939.91;5096274;28;20190;-72
2023/06/11 00:40:50;;;;;;;14.40;13.30;;;;;;;-145.94;48.17;75943.97;5077874;28;20190;-72
2023/06/11 00:43:23;;;;;;;14.70;13.43;;;;;;;-145.94;48.43;75954.19;5096024;28;20193;-72
2023/06/11 00:45:50;;;;;;;14.23;13.33;;;;;;;-145.94;48.30;75952.13;5096523;28;20175;-72
2023/06/11 00:48:21;;;;;;;14.63;13.70;;;;;;;-145.94;48.33;75950.09;5077648;28;20210;-71
2023/06/11 00:50:49;;;;;;;13.60;12.87;;;;;;;-145.94;48.33;75952.13;5095913;28;20202;-72
2023/06/11 00:53:17;;;;;;;16.23;14.60;;;;;;;-145.94;48.79;75968.44;5095766;28;20200;-72
2023/06/11 00:55:45;;;;;;;14.13;13.10;;;;;;;-145.94;48.69;75970.47;5095709;28;20668;-72
2023/06/11 00:58:17;;;;;;;14.97;13.60;;;;;;;-145.94;48.80;75970.47;5096205;28;20186;-71
2023/06/11 01:00:47;;;;;;;14.90;13.70;;;;;;;-145.94;48.97;75982.72;5077592;28;20181;-71
2023/06/11 01:03:21;;;;;;;15.23;13.63;;;;;;;-145.94;48.90;75982.72;5095602;28;20193;-71
2023/06/11 01:05:50;;;;;;;14.67;13.63;;;;;;;-145.94;48.84;75976.59;5077483;28;20246;-71
2023/06/11 01:08:19;;;;;;;15.70;14.50;;;;;;;-145.94;48.88;75982.72;5077303;28;20190;-70
2023/06/11 01:10:50;;;;;;;14.33;13.33;;;;;;;-145.94;48.89;75986.78;5076132;28;20203;-71
2023/06/11 01:13:17;;;;;;;13.97;13.17;;;;;;;-145.94;49.00;75990.88;5077310;28;20582;-71
2023/06/11 01:15:44;;;;;;;16.00;14.67;;;;;;;-145.94;49.13;75999.03;5077448;28;20564;-71
2023/06/11 01:18:19;;;;;;;14.20;13.17;;;;;;;-145.94;49.36;76009.22;5078696;28;20544;-71
2023/06/11 01:20:57;;;;;;;18.87;14.13;;;;;;;-145.94;49.53;76019.41;5097719;28;20615;-71
2023/06/11 01:23:41;;;;;;;14.77;13.67;;;;;;;-145.94;49.34;76013.28;5077993;28;20189;-71
2023/06/11 01:26:49;;;;;;;15.20;13.70;;;;;;;-145.94;49.39;76017.38;5077033;28;20571;-71
2023/06/11 01:29:21;;;;;;;15.47;13.87;;;;;;;-145.94;49.63;76023.50;5076833;28;20221;-71
2023/06/11 01:31:50;;;;;;;15.40;13.90;;;;;;;-145.94;49.47;76017.38;5077736;28;20213;-72
2023/06/11 01:34:17;;;;;;;13.23;12.57;;;;;;;-145.94;49.43;76007.19;5076819;28;20190;-72
2023/06/11 01:36:44;;;;;;;13.93;13.07;;;;;;;-145.94;49.32;76007.19;5094891;28;20198;-72
2023/06/11 01:39:12;;;;;;;13.50;12.63;;;;;;;-145.94;49.24;76005.16;5077490;28;20753;-72
2023/06/11 01:41:56;;;;;;;13.43;12.73;;;;;;;-145.94;49.39;76019.41;5077258;28;20190;-72
2023/06/11 01:44:25;;;;;;;14.40;13.30;;;;;;;-145.94;49.79;76031.66;5094894;28;20196;-72
2023/06/11 01:46:51;;;;;;;14.87;13.77;;;;;;;-145.94;49.93;76039.81;5094737;28;20182;-72
2023/06/11 01:49:18;;;;;;;13.77;12.93;;;;;;;-145.94;50.31;76052.03;5076492;28;20217;-72
2023/06/11 01:51:44;;;;;;;15.20;13.83;;;;;;;-145.94;50.24;76058.16;5076524;28;20190;-72
2023/06/11 01:54:11;;;;;;;14.23;13.13;;;;;;;-145.94;50.37;76064.25;5076701;28;20567;-72
2023/06/11 01:56:38;;;;;;;13.50;12.80;;;;;;;-145.94;50.26;76058.16;5094790;28;20209;-72
2023/06/11 01:59:04;;;;;;;14.57;13.77;;;;;;;-145.94;50.55;76062.22;5076260;28;20206;-71
2023/06/11 02:01:32;;;;;;;14.63;13.83;;;;;;;-145.94;50.48;76060.19;5076360;28;20186;-71
2023/06/11 02:03:59;;;;;;;14.00;13.30;;;;;;;-145.94;50.36;76070.38;5094418;28;20267;-72
2023/06/11 02:06:26;;;;;;;15.30;14.23;;;;;;;-145.94;50.36;76072.44;5076276;28;20560;-72
2023/06/11 02:08:52;;;;;;;16.13;14.50;;;;;;;-145.94;50.44;76078.53;5094805;28;20201;-71
2023/06/11 02:11:19;;;;;;;14.63;13.60;;;;;;;-145.94;50.62;76090.78;5076105;28;20672;-71
2023/06/11 02:13:46;;;;;;;15.03;14.10;;;;;;;-145.94;50.61;76088.72;5094310;28;20540;-71
2023/06/11 02:16:12;;;;;;;15.47;14.23;;;;;;;-145.94;50.66;76092.81;5075980;28;20201;-72
2023/06/11 02:18:39;;;;;;;15.60;14.30;;;;;;;-145.94;51.00;76111.16;5075919;28;20214;-71
2023/06/11 02:21:05;;;;;;;15.13;14.23;;;;;;;-145.94;51.10;76113.19;5094053;28;20186;-72
2023/06/11 02:23:32;;;;;;;16.87;15.20;;;;;;;-145.94;51.14;76115.25;5075903;28;20201;-71
2023/06/11 02:25:58;;;;;;;15.57;14.27;;;;;;;-145.94;50.93;76115.25;5094009;28;20200;-72
2023/06/11 02:28:25;;;;;;;15.87;14.37;;;;;;;-145.94;51.28;76119.31;5075933;28;20215;-72
2023/06/11 02:30:52;;;;;;;16.73;15.43;;;;;;;-145.94;51.48;76129.50;5075716;28;20655;-72
2023/06/11 02:33:18;;;;;;;15.50;14.60;;;;;;;-145.94;51.32;76121.34;5075742;28;20734;-72
2023/06/11 02:35:45;;;;;;;15.63;14.63;;;;;;;-145.94;51.46;76137.66;5075693;28;20186;-72
2023/06/11 02:38:11;;;;;;;15.33;14.17;;;;;;;-145.94;51.45;76139.69;5075595;28;20301;-72
2023/06/11 02:40:38;;;;;;;14.20;13.23;;;;;;;-145.94;51.55;76137.66;5093804;28;20186;-71
2023/06/11 02:43:04;;;;;;;15.20;14.10;;;;;;;-145.94;51.71;76137.66;5075643;28;20204;-72
2023/06/11 02:45:31;;;;;;;14.57;13.77;;;;;;;-145.94;51.68;76135.63;5093728;28;20185;-72
2023/06/11 02:47:57;;;;;;;16.17;15.00;;;;;;;-145.94;51.68;76147.84;5075465;28;20285;-71
2023/06/11 02:50:24;;;;;;;15.13;14.17;;;;;;;-145.94;51.42;76143.78;5093598;28;20208;-72
2023/06/11 02:52:51;;;;;;;14.93;13.93;;;;;;;-145.94;51.82;76153.97;5075464;28;20197;-72
2023/06/11 02:55:17;;;;;;;16.17;15.03;;;;;;;-145.94;51.74;76147.84;5093624;28;20588;-72
2023/06/11 02:57:44;;;;;;;15.83;14.43;;;;;;;-145.94;51.37;76143.78;5093511;28;20206;-71
2023/06/11 03:00:11;;;;;;;14.40;13.60;;;;;;;-145.94;51.51;76145.81;5075322;28;20214;-72
2023/06/11 03:02:39;;;;;;;14.50;13.60;;;;;;;-145.94;51.35;76139.69;5075374;28;20656;-72
2023/06/11 03:05:06;;;;;;;16.20;14.67;;;;;;;-145.94;51.47;76141.75;5075385;28;20622;-72
2023/06/11 03:07:33;;;;;;;16.40;14.93;;;;;;;-145.94;51.82;76160.09;5075263;28;20186;-72
2023/06/11 03:09:59;;;;;;;14.03;13.20;;;;;;;-145.94;51.88;76164.16;5075296;28;20217;-71
2023/06/11 03:12:26;;;;;;;15.73;14.50;;;;;;;-145.94;52.02;76170.28;5075511;28;20200;-71
2023/06/11 03:14:52;;;;;;;20.17;14.60;;;;;;;-145.94;52.19;76172.31;5075240;28;20217;-71
2023/06/11 03:17:19;;;;;;;15.43;14.23;;;;;;;-145.94;51.93;76166.22;5075140;28;20355;-71
2023/06/11 03:19:45;;;;;;;14.93;13.97;;;;;;;-145.94;52.08;76176.41;5093251;28;20202;-71
2023/06/11 03:22:12;;;;;;;15.77;14.30;;;;;;;-145.94;52.13;76178.44;5075202;28;20196;-71
2023/06/11 03:24:38;;;;;;;14.60;13.63;;;;;;;-145.94;52.33;76178.44;5075147;28;20281;-71
2023/06/11 03:27:15;;;;;;;14.47;13.60;;;;;;;-145.94;52.16;76176.41;5075329;28;20185;-71
2023/06/11 03:29:42;;;;;;;15.47;14.17;;;;;;;-145.94;52.17;76182.53;5075064;28;20221;-71
2023/06/11 03:32:09;;;;;;;13.93;13.13;;;;;;;-145.94;52.10;76180.47;5075087;28;20186;-71
2023/06/11 03:34:42;;;;;;;14.93;13.60;;;;;;;-145.94;51.79;76180.47;5078839;28;20185;-71
2023/06/11 03:37:09;;;;;;;14.30;13.47;;;;;;;-145.94;52.10;76184.56;5097482;28;20205;-71
2023/06/11 03:39:37;;;;;;;14.57;13.47;;;;;;;-145.94;52.25;76184.56;5078982;28;20264;-71
2023/06/11 03:42:03;;;;;;;17.13;15.43;;;;;;;-145.94;52.52;76192.72;5079004;28;20197;-71
2023/06/11 03:44:31;;;;;;;15.30;14.20;;;;;;;-145.94;52.84;76202.91;5078974;28;20193;-71
2023/06/11 03:46:57;;;;;;;15.73;14.37;;;;;;;-145.94;52.80;76202.91;5097088;28;20182;-71
2023/06/11 03:49:24;;;;;;;15.37;14.00;;;;;;;-145.94;52.83;76207.00;5078790;28;20283;-71
2023/06/11 03:51:51;;;;;;;15.03;13.97;;;;;;;-145.94;53.05;76213.09;5078786;28;20674;-71
2023/06/11 03:54:17;;;;;;;15.30;14.20;;;;;;;-145.94;53.23;76215.13;5078829;28;20193;-71
2023/06/11 03:56:44;;;;;;;15.73;14.73;;;;;;;-145.94;53.30;76213.09;5078682;28;20212;-71
2023/06/11 03:59:10;;;;;;;15.97;14.57;;;;;;;-145.94;53.39;76221.25;5096825;28;20209;-71
2023/06/11 04:01:37;;;;;;;15.50;14.53;;;;;;;-145.94;53.28;76223.28;5078643;28;20224;-71
2023/06/11 04:04:04;;;;;;;16.40;15.17;;;;;;;-145.94;53.48;76227.38;5097043;28;20178;-71
2023/06/11 04:06:39;;;;;;;16.40;14.90;;;;;;;-145.94;53.46;76233.50;5078821;28;20210;-71
2023/06/11 04:09:06;;;;;;;15.87;14.80;;;;;;;-145.94;53.52;76225.34;5078650;28;20683;-71
2023/06/11 04:11:33;;;;;;;14.93;13.90;;;;;;;-145.94;53.70;76231.44;5078425;28;20216;-71
2023/06/11 04:14:00;;;;;;;16.10;14.87;;;;;;;-145.94;53.85;76237.56;5079237;28;20194;-71
2023/06/11 04:16:26;;;;;;;16.37;14.70;;;;;;;-145.94;53.72;76233.50;5078362;28;20197;-71
2023/06/11 04:18:53;;;;;;;14.70;13.80;;;;;;;-145.94;53.63;76227.38;5078228;28;20213;-71
2023/06/11 04:21:22;;;;;;;16.33;14.53;;;;;;;-145.94;53.50;76223.28;5096443;28;20594;-71
2023/06/11 04:23:49;;;;;;;14.53;13.57;;;;;;;-145.94;53.55;76217.19;5078216;28;20185;-71
2023/06/11 04:26:16;;;;;;;18.93;13.80;;;;;;;-145.94;53.39;76217.19;5079043;28;20196;-71
2023/06/11 04:28:45;;;;;;;14.93;13.90;;;;;;;-145.94;53.60;76209.03;5077992;28;20225;-71
2023/06/11 04:31:12;;;;;;;15.03;13.93;;;;;;;-145.94;53.38;76204.94;5078097;28;20190;-71
2023/06/11 04:33:39;;;;;;;14.83;13.93;;;;;;;-145.94;53.55;76200.88;5078066;28;20204;-71
2023/06/11 04:36:08;;;;;;;14.80;13.87;;;;;;;-145.94;53.58;76200.88;5096190;28;20193;-71
2023/06/11 04:38:36;;;;;;;14.83;13.77;;;;;;;-145.94;53.31;76200.88;5077846;28;20221;-70
2023/06/11 04:41:11;;;;;;;14.83;13.83;;;;;;;-145.94;53.28;76190.69;5077908;28;20194;-71
2023/06/11 04:43:40;;;;;;;14.13;13.33;;;;;;;-145.94;53.13;76182.53;5078138;28;20190;-71
2023/06/11 04:46:06;;;;;;;14.77;13.50;;;;;;;-145.94;53.08;76174.38;5077637;28;20194;-71
2023/06/11 04:48:35;;;;;;;13.83;12.77;;;;;;;-145.94;53.19;76170.28;5077745;28;20213;-71
2023/06/11 04:51:02;;;;;;;13.83;12.93;;;;;;;-145.94;52.98;76160.09;5077764;28;20197;-70
2023/06/11 04:53:37;;;;;;;14.33;13.50;;;;;;;-145.94;53.20;76153.97;5077707;28;20277;-70
2023/06/11 04:56:04;;;;;;;19.23;14.70;;;;;;;-145.94;53.34;76158.06;5077612;28;20182;-70
2023/06/11 04:58:34;;;;;;;15.17;13.73;;;;;;;-145.94;53.31;76153.97;5077454;28;20222;-70
2023/06/11 05:01:01;;;;;;;14.77;13.83;;;;;;;-145.94;53.31;76147.84;5077561;28;20194;-70
2023/06/11 05:03:29;;;;;;;14.43;13.37;;;;;;;-145.94;53.05;76141.75;5077505;28;20586;-71
2023/06/11 05:05:55;;;;;;;14.07;13.27;;;;;;;-145.94;53.42;76133.59;5078166;28;20188;-71
2023/06/11 05:08:25;;;;;;;14.77;13.13;;;;;;;-145.94;52.72;76119.31;5077389;28;20668;-71
2023/06/11 05:11:00;;;;;;;14.63;13.70;;;;;;;-145.94;52.39;76119.31;5077429;28;20568;-71
2023/06/11 05:13:30;;;;;;;14.87;13.73;;;;;;;-145.94;52.52;76109.13;5077345;28;20200;-71
2023/06/11 05:16:01;;;;;;;15.90;13.17;;;;;;;-145.94;52.78;76103.00;5077309;28;20652;-71
2023/06/11 05:18:28;;;;;;;14.40;13.60;;;;;;;-145.94;52.82;76084.66;5077149;28;20210;-70
2023/06/11 05:20:57;;;;;;;13.50;12.70;;;;;;;-145.94;52.52;76084.66;5077432;28;20562;-71
2023/06/11 05:23:28;;;;;;;14.70;13.80;;;;;;;-145.94;52.62;76076.50;5095291;28;20181;-71
2023/06/11 05:26:19;;;;;;;15.33;14.03;;;;;;;-145.94;52.06;76064.25;5077164;28;20181;-71
2023/06/11 05:28:46;;;;;;;14.40;13.63;;;;;;;-145.94;51.77;76050.00;5076860;28;20209;-71
2023/06/11 05:31:12;;;;;;;15.30;13.93;;;;;;;-145.94;51.79;76050.00;5095110;28;20666;-71
2023/06/11 05:33:42;;;;;;;14.90;13.60;;;;;;;-145.94;51.05;76052.03;5077463;28;20262;-71
2023/06/11 05:36:09;;;;;;;14.47;13.67;;;;;;;-145.94;51.33;76047.97;5076869;28;20223;-71
2023/06/11 05:38:37;;;;;;;13.93;12.97;;;;;;;-145.94;51.59;76035.72;5095043;28;20214;-71
2023/06/11 05:41:03;;;;;;;15.63;14.10;;;;;;;-145.94;51.50;76029.59;5077146;28;20660;-71
2023/06/11 05:43:31;;;;;;;13.80;13.10;;;;;;;-145.94;51.55;76021.44;5077286;28;20239;-71
2023/06/11 05:45:57;;;;;;;14.37;13.10;;;;;;;-145.94;50.72;76007.19;5076748;28;20200;-71
2023/06/11 05:48:26;;;;;;;13.93;12.90;;;;;;;-145.94;51.38;75992.91;5076394;28;20647;-71
2023/06/11 05:50:53;;;;;;;14.27;12.60;;;;;;;-145.94;51.22;75974.56;5094722;28;20217;-71
2023/06/11 05:53:22;;;;;;;14.40;13.33;;;;;;;-145.94;50.69;75964.38;5076551;28;20197;-71
2023/06/11 05:55:49;;;;;;;13.53;12.83;;;;;;;-145.94;50.50;75946.03;5075832;28;20190;-71
2023/06/11 05:58:20;;;;;;;14.13;12.87;;;;;;;-145.94;50.11;75931.75;5076811;28;20197;-71
2023/06/11 06:00:47;;;;;;;13.13;11.93;;;;;;;-145.94;50.00;75913.41;5076383;28;20198;-71
2023/06/11 06:03:14;;;;;;;13.90;12.30;;;;;;;-145.94;49.99;75895.06;5076285;28;20189;-71
2023/06/11 06:05:41;;;;;;;12.67;12.07;;;;;;;-145.94;49.68;75890.97;5076263;28;20200;-71
2023/06/11 06:08:07;;;;;;;13.30;12.37;;;;;;;-145.94;49.21;75895.06;5076215;28;20186;-71
2023/06/11 06:10:34;;;;;;;13.73;12.83;;;;;;;-145.94;49.15;75893.00;5076115;28;20210;-71
2023/06/11 06:13:02;;;;;;;13.63;12.30;;;;;;;-145.94;49.61;75880.78;5076107;28;20212;-70
2023/06/11 06:15:29;;;;;;;12.53;11.90;;;;;;;-145.94;49.15;75874.66;5076381;28;20656;-70
2023/06/11 06:17:55;;;;;;;13.03;12.27;;;;;;;-145.94;48.76;75858.34;5076441;28;20229;-70
2023/06/11 06:20:30;;;;;;;14.07;12.87;;;;;;;-145.94;48.35;75854.28;5075975;28;20282;-71
2023/06/11 06:22:57;;;;;;;13.20;12.27;;;;;;;-145.94;48.79;75848.16;5094685;28;20237;-68
2023/06/11 06:25:24;;;;;;;13.33;12.57;;;;;;;-145.94;48.55;75831.84;5076129;28;20194;-68
2023/06/11 06:27:52;;;;;;;13.10;12.33;;;;;;;-145.94;47.65;75829.81;5076160;28;20612;-71
2023/06/11 06:30:18;;;;;;;12.70;11.90;;;;;;;-145.94;48.19;75819.63;5093893;28;20285;-71
2023/06/11 06:32:45;;;;;;;14.13;13.13;;;;;;;-145.94;47.61;75819.63;5076619;28;20243;-71
2023/06/11 06:35:12;;;;;;;12.47;11.77;;;;;;;-145.94;47.21;75782.94;5076612;28;20208;-71
2023/06/11 06:37:39;;;;;;;12.00;11.53;;;;;;;-145.94;47.26;75754.38;5075640;28;20224;-71
2023/06/11 06:40:06;;;;;;;13.23;12.17;;;;;;;-145.94;47.04;75742.16;5075594;28;20217;-71
2023/06/11 06:42:33;;;;;;;12.97;11.93;;;;;;;-145.94;47.03;75717.69;5075749;28;20182;-71
2023/06/11 06:45:02;;;;;;;12.70;12.00;;;;;;;-145.94;46.67;75707.50;5075831;28;20247;-71
2023/06/11 06:47:28;;;;;;;13.10;12.30;;;;;;;-145.94;46.52;75691.19;5075640;28;20272;-69
2023/06/11 06:49:56;;;;;;;12.47;11.63;;;;;;;-145.94;46.33;75670.81;5075498;28;20206;-69
2023/06/11 06:52:22;;;;;;;12.17;11.77;;;;;;;-145.94;45.12;75660.59;5093666;28;20177;-71
2023/06/11 06:54:51;;;;;;;13.37;12.50;;;;;;;-145.94;45.01;75640.22;5075523;28;20189;-71
2023/06/11 06:57:18;;;;;;;13.07;12.23;;;;;;;-145.94;44.89;75623.91;5075359;28;20200;-71
2023/06/11 06:59:44;;;;;;;12.30;11.53;;;;;;;-145.94;44.21;75603.53;5075406;28;20217;-71
2023/06/11 07:02:11;;;;;;;12.13;11.43;;;;;;;-145.94;44.37;75599.44;5093731;28;20200;-71
2023/06/11 07:04:38;;;;;;;11.53;10.93;;;;;;;-145.94;44.04;75579.06;5075376;28;20539;-71
2023/06/11 07:07:05;;;;;;;11.20;10.73;;;;;;;-145.94;43.93;75568.88;5075324;28;20189;-71
2023/06/11 07:09:32;;;;;;;12.23;11.20;;;;;;;-145.94;43.59;75566.84;5075191;28;20209;-70
2023/06/11 07:11:59;;;;;;;11.23;10.63;;;;;;;-145.94;43.71;75550.53;5075847;28;20190;-71
2023/06/11 07:14:26;;;;;;;11.30;10.90;;;;;;;-145.94;43.22;75542.38;5075565;28;20194;-71
2023/06/11 07:16:53;;;;;;;11.57;11.20;;;;;;;-145.94;43.56;75536.25;5093673;28;20194;-71
2023/06/11 07:19:19;;;;;;;11.03;10.50;;;;;;;-145.94;42.90;75515.88;5075114;28;20267;-71
2023/06/11 07:21:46;;;;;;;10.37;9.97;;;;;;;-145.94;43.37;75483.25;5093287;28;20186;-72
2023/06/11 07:24:12;;;;;;;10.97;10.57;;;;;;;-145.94;42.23;75479.19;5075091;28;20212;-71
2023/06/11 07:26:39;;;;;;;11.57;10.80;;;;;;;-145.94;41.86;75462.88;5093214;28;20699;-72
2023/06/11 07:29:06;;;;;;;11.03;10.53;;;;;;;-145.94;41.56;75454.72;5074962;28;20287;-72
2023/06/11 07:31:35;;;;;;;11.02;10.52;;;;;;;-145.94;40.89;75452.69;5075063;28;20565;-72
2023/06/11 07:34:02;;;;;;;11.03;10.63;;;;;;;-145.94;41.27;75442.47;5075057;28;20279;-72
2023/06/11 07:36:29;;;;;;;10.88;10.48;;;;;;;-145.94;40.99;75442.47;5074968;28;20224;-72
2023/06/11 07:38:55;;;;;;;11.57;11.02;;;;;;;-145.94;40.84;75438.41;5074846;28;20224;-72
2023/06/11 07:41:22;;;;;;;12.07;10.55;;;;;;;-145.94;40.49;75432.28;5075067;28;20189;-72
2023/06/11 07:43:49;;;;;;;11.65;10.95;;;;;;;-145.94;40.71;75415.97;5074982;28;20221;-72
2023/06/11 07:46:16;;;;;;;11.55;10.60;;;;;;;-145.94;40.31;75420.06;5075044;28;20198;-72
2023/06/11 07:48:44;;;;;;;11.02;10.25;;;;;;;-145.94;40.45;75407.84;5074875;28;20206;-72
2023/06/11 07:51:14;;;;;;;11.88;11.30;;;;;;;-145.94;40.11;75395.59;5094531;28;20582;-72
2023/06/11 07:53:49;;;;;;;11.45;10.95;;;;;;;-145.94;40.56;75371.13;5075633;28;20680;-73
2023/06/11 07:56:15;;;;;;;11.57;10.88;;;;;;;-145.94;39.52;75356.88;5093048;28;20683;-72
2023/06/11 07:58:44;;;;;;;11.35;10.80;;;;;;;-145.94;40.03;75354.84;5092910;28;20241;-72
2023/06/11 08:01:11;;;;;;;10.38;9.45;;;;;;;-145.94;39.76;75346.69;5092938;28;20721;-72
2023/06/11 08:03:37;;;;;;;10.63;10.02;;;;;;;-145.94;40.00;75330.38;5092925;28;20198;-72
2023/06/11 08:06:04;;;;;;;9.23;8.52;;;;;;;-145.94;38.06;75332.41;5093160;28;20277;-73
2023/06/11 08:08:30;;;;;;;9.82;9.43;;;;;;;-145.94;38.91;75318.13;5093045;28;20190;-72
2023/06/11 08:10:57;;;;;;;11.23;8.57;;;;;;;-145.94;38.31;75303.88;5092860;28;20193;-72
2023/06/11 08:13:23;;;;;;;9.10;8.75;;;;;;;-145.94;37.11;75285.53;5092913;28;20190;-72
2023/06/11 08:15:50;;;;;;;11.73;8.40;;;;;;;-145.94;37.28;75277.38;5092798;28;20185;-72
2023/06/11 08:18:16;;;;;;;8.43;6.90;;;;;;;-145.94;35.09;75263.09;5092854;28;20214;-72
2023/06/11 08:20:46;;;;;;;8.40;8.25;;;;;;;-145.94;35.09;75252.91;5095985;28;20196;-73
2023/06/11 08:23:12;;;;;;;8.35;8.15;;;;;;;-145.94;35.95;75244.75;5096440;28;20185;-72
2023/06/11 08:25:39;;;;;;;7.68;7.47;;;;;;;-145.94;35.43;75228.44;5096309;28;20243;-72
2023/06/11 08:28:05;;;;;;;8.43;8.23;;;;;;;-145.94;35.32;75218.25;5096220;28;20224;-72
2023/06/11 08:30:32;;;;;;;7.53;7.22;;;;;;;-145.94;34.65;75208.06;5096093;28;20241;-72
2023/06/11 08:32:59;;;;;;;7.68;7.15;;;;;;;-145.94;34.73;75204.00;5078388;28;20185;-72
2023/06/11 08:35:25;;;;;;;6.18;6.00;;;;;;;-145.94;33.77;75195.84;5096309;28;20178;-73
2023/06/11 08:37:52;;;;;;;7.45;6.15;;;;;;;-145.94;34.06;75181.56;5095871;28;20663;-72
2023/06/11 08:40:21;;;;;;;6.90;6.70;;;;;;;-145.94;34.32;75165.25;5096310;28;20198;-72
2023/06/11 08:42:47;;;;;;;6.38;6.28;;;;;;;-145.94;33.49;75155.06;5096515;28;20223;-72
2023/06/11 08:45:14;;;;;;;6.60;6.07;;;;;;;-145.94;32.76;75132.66;5096266;28;20628;-72
2023/06/11 08:47:47;;;;;;;7.22;6.63;;;;;;;-145.94;33.58;75140.81;5096453;28;20643;-72
2023/06/11 08:50:14;;;;;;;5.65;5.55;;;;;;;-145.94;33.16;75140.81;5095825;28;20214;-72
2023/06/11 08:52:41;;;;;;;5.57;5.28;;;;;;;-145.94;32.37;75146.91;5096418;28;20174;-72
2023/06/11 08:55:08;;;;;;;5.85;5.40;;;;;;;-145.94;32.66;75169.34;5096031;28;20182;-73
2023/06/11 08:57:35;;;;;;;7.75;5.97;;;;;;;-145.94;33.07;75157.09;5095780;28;20185;-72
2023/06/11 09:00:01;;;;;;;5.60;5.43;;;;;;;-145.94;33.03;75148.97;5095607;28;20267;-72
2023/06/11 09:02:28;;;;;;;6.43;6.22;;;;;;;-145.94;32.93;75144.88;5077892;28;20197;-72
2023/06/11 09:04:55;;;;;;;5.95;5.63;;;;;;;-145.94;32.70;75144.88;5096243;28;20170;-73
2023/06/11 09:07:25;;;;;;;6.47;6.28;;;;;;;-145.94;33.35;75130.63;5095558;28;20186;-73
2023/06/11 09:10:02;;;;;;;6.07;5.72;;;;;;;-145.94;33.56;75110.22;5095497;28;20585;-72
2023/06/11 09:12:29;;;;;;;6.60;6.28;;;;;;;-145.94;32.76;75118.38;5095750;28;20685;-72
2023/06/11 09:14:55;;;;;;;6.78;6.47;;;;;;;-145.94;32.72;75112.28;5095683;28;20235;-73
2023/06/11 09:17:22;;;;;;;6.55;6.35;;;;;;;-145.94;32.86;75098.00;5095640;28;20189;-72
2023/06/11 09:19:54;;;;;;;6.40;6.00;;;;;;;-145.94;32.72;75114.31;5095256;28;20228;-72
2023/06/11 09:22:27;;;;;;;7.18;6.68;;;;;;;-145.94;32.26;75124.50;5095306;28;20284;-72
2023/06/11 09:24:54;;;;;;;6.65;6.00;;;;;;;-145.94;32.41;75134.69;5095271;28;20170;-72
2023/06/11 09:27:22;;;;;;;11.18;5.90;;;;;;;-145.94;33.56;75114.31;5095040;28;20632;-72
2023/06/11 09:29:48;;;;;;;7.45;6.07;;;;;;;-145.94;31.56;75098.00;5095196;28;20202;-72
2023/06/11 09:32:15;;;;;;;6.22;6.13;;;;;;;-145.94;32.27;75073.53;5094650;28;20204;-73
2023/06/11 09:34:49;;;;;;;6.63;5.97;;;;;;;-145.94;32.16;75069.47;5095395;28;20229;-72
2023/06/11 09:37:16;;;;;;;6.90;6.60;;;;;;;-145.94;31.27;75047.03;5095239;28;20178;-72
2023/06/11 09:39:45;;;;;;;6.50;6.05;;;;;;;-145.94;31.11;75053.16;5095064;28;20235;-73
2023/06/11 09:42:26;;;;;;;5.63;5.43;;;;;;;-145.94;31.13;75057.22;5095107;28;20591;-72
2023/06/11 09:45:01;;;;;;;6.40;6.13;;;;;;;-145.94;31.41;75051.13;5095160;28;20170;-73
2023/06/11 09:47:30;;;;;;;6.45;6.28;;;;;;;-145.94;31.67;75032.78;5095185;28;20614;-72
2023/06/11 09:50:01;;;;;;;7.35;6.70;;;;;;;-145.94;30.67;75051.13;5095232;28;20615;-72
2023/06/11 09:52:28;;;;;;;6.32;6.03;;;;;;;-145.94;29.73;75049.09;5095282;28;20182;-73
2023/06/11 09:54:55;;;;;;;6.53;5.85;;;;;;;-145.94;29.19;75040.94;5094641;28;20182;-72
2023/06/11 09:57:21;;;;;;;8.10;6.88;;;;;;;-145.94;29.63;75059.28;5094600;28;20193;-72
2023/06/11 09:59:48;;;;;;;6.20;5.85;;;;;;;-145.94;30.35;75038.88;5094961;28;20679;-72
2023/06/11 10:02:15;;;;;;;6.13;5.78;;;;;;;-145.94;29.43;75022.59;5094714;28;20182;-72
2023/06/11 10:04:42;;;;;;;5.88;5.55;;;;;;;-145.94;30.15;75016.47;5094493;28;20193;-72
2023/06/11 10:07:10;;;;;;;6.47;6.38;;;;;;;-145.94;29.24;75012.38;5094965;28;20613;-73
2023/06/11 10:09:38;;;;;;;6.80;6.45;;;;;;;-145.94;29.19;75026.66;5094299;28;20259;-72
2023/06/11 10:12:06;;;;;;;6.25;6.20;;;;;;;-145.94;29.29;75014.44;5094563;28;20182;-73
2023/06/11 10:14:33;;;;;;;11.48;7.65;;;;;;;-145.94;29.01;75006.28;5094333;28;20197;-72
2023/06/11 10:17:02;;;;;;;7.38;6.60;;;;;;;-145.94;29.77;75028.69;5094815;28;20190;-72
2023/06/11 10:19:38;;;;;;;5.97;5.88;;;;;;;-145.94;29.60;75028.69;5094069;28;20218;-72
2023/06/11 10:22:06;;;;;;;6.40;6.07;;;;;;;-145.94;30.05;75026.66;5094155;28;20268;-72
2023/06/11 10:24:32;;;;;;;5.80;5.70;;;;;;;-145.94;30.07;75004.25;5094095;28;20189;-73
2023/06/11 10:27:11;;;;;;;7.60;7.05;;;;;;;-145.94;29.16;74977.75;5094346;28;20189;-72
2023/06/11 10:29:49;;;;;;;7.07;6.78;;;;;;;-145.94;29.52;74979.78;5094478;28;20232;-73
2023/06/11 10:32:20;;;;;;;6.53;6.13;;;;;;;-145.94;29.58;74977.75;5094268;28;20595;-73
2023/06/11 10:34:58;;;;;;;6.53;6.22;;;;;;;-145.94;29.70;74987.94;5093957;28;20178;-72
2023/06/11 10:37:37;;;;;;;6.47;6.05;;;;;;;-145.94;29.10;74981.81;5094207;28;20184;-72
2023/06/11 10:40:08;;;;;;;7.05;6.60;;;;;;;-145.94;29.24;74983.84;5093870;28;20221;-73
2023/06/11 10:42:38;;;;;;;6.40;5.63;;;;;;;-145.94;29.19;74979.78;5093563;28;20170;-74
2023/06/11 10:45:09;;;;;;;6.32;6.32;;;;;;;-145.94;29.90;74983.84;5094045;28;20170;-72
2023/06/11 10:47:46;;;;;;;6.18;5.90;;;;;;;-145.94;29.24;74977.75;5093971;28;20174;-72
2023/06/11 10:50:14;;;;;;;5.55;5.55;;;;;;;-145.94;29.67;74965.50;5094147;28;20297;-72
2023/06/11 10:52:48;;;;;;;6.38;6.18;;;;;;;-145.94;28.26;74977.75;5093627;28;20228;-72
2023/06/11 10:55:16;;;;;;;6.68;6.40;;;;;;;-145.94;28.35;74973.66;5093943;28;20227;-72
2023/06/11 10:57:43;;;;;;;7.35;7.18;;;;;;;-145.94;28.76;74943.09;5093566;28;20185;-73
2023/06/11 11:00:11;;;;;;;7.35;6.97;;;;;;;-145.94;29.04;74955.31;5093749;28;20221;-72
2023/06/11 11:02:38;;;;;;;6.95;6.68;;;;;;;-145.94;28.65;74951.25;5093747;28;20174;-72
2023/06/11 11:05:09;;;;;;;6.78;6.68;;;;;;;-145.94;28.63;74939.00;5093705;28;20167;-72
2023/06/11 11:07:36;;;;;;;7.15;6.82;;;;;;;-145.94;28.47;74943.09;5093681;28;20686;-72
2023/06/11 11:10:07;;;;;;;6.57;6.18;;;;;;;-145.94;28.21;74943.09;5093917;28;20197;-72
2023/06/11 11:12:45;;;;;;;6.53;6.07;;;;;;;-145.94;28.04;74953.28;5093639;28;20227;-72